sensor_id;sensor_type;location;lat;lon;timestamp;temperature;humidity
18339;DHT22;9295;44.484;11.240;2023-08-07T00:01:12;19.00;99.90
18339;DHT22;9295;44.484;11.240;2023-08-07T00:03:41;18.90;99.90
18339;DHT22;9295;44.484;11.240;2023-08-07T00:06:09;18.70;99.90
18339;DHT22;9295;44.484;11.240;2023-08-07T00:08:38;18.70;99.90
18339;DHT22;9295;44.484;11.240;2023-08-07T00:11:07;18.60;99.90
18339;DHT22;9295;44.484;11.240;2023-08-07T00:13:37;18.60;99.90
18339;DHT22;9295;44.484;11.240;2023-08-07T00:16:05;18.60;99.90
18339;DHT22;9295;44.484;11.240;2023-08-07T00:18:34;18.60;99.90
18339;DHT22;9295;44.484;11.240;2023-08-07T00:21:02;18.50;99.90
18339;DHT22;9295;44.484;11.240;2023-08-07T00:23:31;18.50;99.90
18339;DHT22;9295;44.484;11.240;2023-08-07T00:25:59;18.40;99.90
18339;DHT22;9295;44.484;11.240;2023-08-07T00:28:28;18.30;99.90
18339;DHT22;9295;44.484;11.240;2023-08-07T00:30:58;18.30;99.90
18339;DHT22;9295;44.484;11.240;2023-08-07T00:33:27;18.30;99.90
18339;DHT22;9295;44.484;11.240;2023-08-07T00:35:56;18.30;99.90
18339;DHT22;9295;44.484;11.240;2023-08-07T00:38:24;18.30;99.90
18339;DHT22;9295;44.484;11.240;2023-08-07T00:40:53;18.30;99.90
18339;DHT22;9295;44.484;11.240;2023-08-07T00:43:22;18.20;99.90
18339;DHT22;9295;44.484;11.240;2023-08-07T00:45:51;18.20;99.90
18339;DHT22;9295;44.484;11.240;2023-08-07T00:48:21;18.20;99.90
18339;DHT22;9295;44.484;11.240;2023-08-07T00:50:51;18.10;99.90
18339;DHT22;9295;44.484;11.240;2023-08-07T00:53:20;18.10;99.90
18339;DHT22;9295;44.484;11.240;2023-08-07T00:55:49;18.10;99.90
18339;DHT22;9295;44.484;11.240;2023-08-07T00:58:18;18.00;99.90
18339;DHT22;9295;44.484;11.240;2023-08-07T01:00:47;18.00;99.90
18339;DHT22;9295;44.484;11.240;2023-08-07T01:03:15;18.00;99.90
18339;DHT22;9295;44.484;11.240;2023-08-07T01:05:45;17.90;99.90
18339;DHT22;9295;44.484;11.240;2023-08-07T01:08:14;17.90;99.90
18339;DHT22;9295;44.484;11.240;2023-08-07T01:10:53;17.90;99.90
18339;DHT22;9295;44.484;11.240;2023-08-07T01:13:34;17.90;99.90
18339;DHT22;9295;44.484;11.240;2023-08-07T01:16:07;17.80;99.90
18339;DHT22;9295;44.484;11.240;2023-08-07T01:18:38;17.80;99.90
18339;DHT22;9295;44.484;11.240;2023-08-07T01:21:17;17.80;99.90
18339;DHT22;9295;44.484;11.240;2023-08-07T01:23:48;17.70;99.90
18339;DHT22;9295;44.484;11.240;2023-08-07T01:26:19;17.60;99.90
18339;DHT22;9295;44.484;11.240;2023-08-07T01:28:56;17.60;99.90
18339;DHT22;9295;44.484;11.240;2023-08-07T01:31:26;17.60;99.90
18339;DHT22;9295;44.484;11.240;2023-08-07T01:34:01;17.60;99.90
18339;DHT22;9295;44.484;11.240;2023-08-07T01:36:30;17.60;99.90
18339;DHT22;9295;44.484;11.240;2023-08-07T01:39:01;17.70;99.90
18339;DHT22;9295;44.484;11.240;2023-08-07T01:41:31;17.80;99.90
18339;DHT22;9295;44.484;11.240;2023-08-07T01:44:00;17.80;99.90
18339;DHT22;9295;44.484;11.240;2023-08-07T01:46:29;17.90;99.90
18339;DHT22;9295;44.484;11.240;2023-08-07T01:48:57;17.90;99.90
18339;DHT22;9295;44.484;11.240;2023-08-07T01:51:26;17.90;99.90
18339;DHT22;9295;44.484;11.240;2023-08-07T01:53:54;17.90;99.90
18339;DHT22;9295;44.484;11.240;2023-08-07T01:56:24;17.90;99.90
18339;DHT22;9295;44.484;11.240;2023-08-07T01:58:53;17.80;99.90
18339;DHT22;9295;44.484;11.240;2023-08-07T02:01:22;17.70;99.90
18339;DHT22;9295;44.484;11.240;2023-08-07T02:03:50;17.80;99.90
18339;DHT22;9295;44.484;11.240;2023-08-07T02:06:19;17.70;99.90
18339;DHT22;9295;44.484;11.240;2023-08-07T02:08:47;17.70;99.90
18339;DHT22;9295;44.484;11.240;2023-08-07T02:11:16;17.80;99.90
18339;DHT22;9295;44.484;11.240;2023-08-07T02:13:46;17.80;99.90
18339;DHT22;9295;44.484;11.240;2023-08-07T02:16:15;17.80;99.90
18339;DHT22;9295;44.484;11.240;2023-08-07T02:18:43;17.80;99.90
18339;DHT22;9295;44.484;11.240;2023-08-07T02:21:12;17.60;99.90
18339;DHT22;9295;44.484;11.240;2023-08-07T02:23:41;17.60;99.90
18339;DHT22;9295;44.484;11.240;2023-08-07T02:26:10;17.60;99.90
18339;DHT22;9295;44.484;11.240;2023-08-07T02:28:38;17.60;99.90
18339;DHT22;9295;44.484;11.240;2023-08-07T02:31:08;17.50;99.90
18339;DHT22;9295;44.484;11.240;2023-08-07T02:33:37;17.50;99.90
18339;DHT22;9295;44.484;11.240;2023-08-07T02:36:05;17.50;99.90
18339;DHT22;9295;44.484;11.240;2023-08-07T02:38:34;17.50;99.90
18339;DHT22;9295;44.484;11.240;2023-08-07T02:41:02;17.60;99.90
18339;DHT22;9295;44.484;11.240;2023-08-07T02:43:30;17.60;99.90
18339;DHT22;9295;44.484;11.240;2023-08-07T02:46:00;17.60;99.90
18339;DHT22;9295;44.484;11.240;2023-08-07T02:48:30;17.60;99.90
18339;DHT22;9295;44.484;11.240;2023-08-07T02:50:58;17.60;99.90
18339;DHT22;9295;44.484;11.240;2023-08-07T02:53:27;17.50;99.90
18339;DHT22;9295;44.484;11.240;2023-08-07T02:55:55;17.50;99.90
18339;DHT22;9295;44.484;11.240;2023-08-07T02:58:24;17.50;99.90
18339;DHT22;9295;44.484;11.240;2023-08-07T03:00:52;17.50;99.90
18339;DHT22;9295;44.484;11.240;2023-08-07T03:03:21;17.40;99.90
18339;DHT22;9295;44.484;11.240;2023-08-07T03:05:51;17.40;99.90
18339;DHT22;9295;44.484;11.240;2023-08-07T03:08:20;17.30;99.90
18339;DHT22;9295;44.484;11.240;2023-08-07T03:10:52;17.30;99.90
18339;DHT22;9295;44.484;11.240;2023-08-07T03:13:20;17.30;99.90
18339;DHT22;9295;44.484;11.240;2023-08-07T03:15:49;17.30;99.90
18339;DHT22;9295;44.484;11.240;2023-08-07T03:18:18;17.20;99.90
18339;DHT22;9295;44.484;11.240;2023-08-07T03:20:46;17.20;99.90
18339;DHT22;9295;44.484;11.240;2023-08-07T03:23:16;17.20;99.90
18339;DHT22;9295;44.484;11.240;2023-08-07T03:25:45;17.10;99.90
18339;DHT22;9295;44.484;11.240;2023-08-07T03:28:14;17.00;99.90
18339;DHT22;9295;44.484;11.240;2023-08-07T03:30:42;16.90;99.90
18339;DHT22;9295;44.484;11.240;2023-08-07T03:33:13;16.90;99.90
18339;DHT22;9295;44.484;11.240;2023-08-07T03:35:42;16.80;99.90
18339;DHT22;9295;44.484;11.240;2023-08-07T03:38:10;16.80;99.90
18339;DHT22;9295;44.484;11.240;2023-08-07T03:40:40;16.70;99.90
18339;DHT22;9295;44.484;11.240;2023-08-07T03:43:09;16.60;99.90
18339;DHT22;9295;44.484;11.240;2023-08-07T03:45:38;16.60;99.90
18339;DHT22;9295;44.484;11.240;2023-08-07T03:48:06;16.50;99.90
18339;DHT22;9295;44.484;11.240;2023-08-07T03:50:35;16.50;99.90
18339;DHT22;9295;44.484;11.240;2023-08-07T03:53:06;16.50;99.90
18339;DHT22;9295;44.484;11.240;2023-08-07T03:55:42;16.50;99.90
18339;DHT22;9295;44.484;11.240;2023-08-07T03:58:12;16.50;99.90
18339;DHT22;9295;44.484;11.240;2023-08-07T04:00:41;16.50;99.90
18339;DHT22;9295;44.484;11.240;2023-08-07T04:03:10;16.50;99.90
18339;DHT22;9295;44.484;11.240;2023-08-07T04:05:39;16.50;99.90
18339;DHT22;9295;44.484;11.240;2023-08-07T04:08:07;16.50;99.90
18339;DHT22;9295;44.484;11.240;2023-08-07T04:10:36;16.50;99.90
18339;DHT22;9295;44.484;11.240;2023-08-07T04:13:06;16.50;99.90
18339;DHT22;9295;44.484;11.240;2023-08-07T04:15:34;16.40;99.90
18339;DHT22;9295;44.484;11.240;2023-08-07T04:18:03;16.50;99.90
18339;DHT22;9295;44.484;11.240;2023-08-07T04:20:31;16.40;99.90
18339;DHT22;9295;44.484;11.240;2023-08-07T04:23:00;16.50;99.90
18339;DHT22;9295;44.484;11.240;2023-08-07T04:25:29;16.50;99.90
18339;DHT22;9295;44.484;11.240;2023-08-07T04:27:57;16.50;99.90
18339;DHT22;9295;44.484;11.240;2023-08-07T04:30:27;16.60;99.90
18339;DHT22;9295;44.484;11.240;2023-08-07T04:32:55;16.60;99.90
18339;DHT22;9295;44.484;11.240;2023-08-07T04:35:24;16.70;99.90
18339;DHT22;9295;44.484;11.240;2023-08-07T04:37:52;16.70;99.90
18339;DHT22;9295;44.484;11.240;2023-08-07T04:40:21;16.60;99.90
18339;DHT22;9295;44.484;11.240;2023-08-07T04:42:49;16.70;99.90
18339;DHT22;9295;44.484;11.240;2023-08-07T04:45:18;16.70;99.90
18339;DHT22;9295;44.484;11.240;2023-08-07T04:47:48;16.70;99.90
18339;DHT22;9295;44.484;11.240;2023-08-07T04:50:17;16.70;99.90
18339;DHT22;9295;44.484;11.240;2023-08-07T04:52:45;16.80;99.90
18339;DHT22;9295;44.484;11.240;2023-08-07T04:55:14;16.80;99.90
18339;DHT22;9295;44.484;11.240;2023-08-07T04:57:43;16.80;99.90
18339;DHT22;9295;44.484;11.240;2023-08-07T05:00:12;16.80;99.90
18339;DHT22;9295;44.484;11.240;2023-08-07T05:02:41;16.90;99.90
18339;DHT22;9295;44.484;11.240;2023-08-07T05:05:11;16.90;99.90
18339;DHT22;9295;44.484;11.240;2023-08-07T05:07:39;16.90;99.90
18339;DHT22;9295;44.484;11.240;2023-08-07T05:10:09;17.00;99.90
18339;DHT22;9295;44.484;11.240;2023-08-07T05:12:37;17.00;99.90
18339;DHT22;9295;44.484;11.240;2023-08-07T05:15:07;17.10;99.90
18339;DHT22;9295;44.484;11.240;2023-08-07T05:17:38;17.30;99.90
18339;DHT22;9295;44.484;11.240;2023-08-07T05:20:10;17.40;99.90
18339;DHT22;9295;44.484;11.240;2023-08-07T05:22:42;17.60;99.90
18339;DHT22;9295;44.484;11.240;2023-08-07T05:25:16;18.40;99.90
18339;DHT22;9295;44.484;11.240;2023-08-07T05:27:46;20.40;99.90
18339;DHT22;9295;44.484;11.240;2023-08-07T05:30:15;21.90;99.90
18339;DHT22;9295;44.484;11.240;2023-08-07T05:32:44;23.40;99.90
18339;DHT22;9295;44.484;11.240;2023-08-07T05:35:14;24.30;99.90
18339;DHT22;9295;44.484;11.240;2023-08-07T05:37:43;25.10;99.90
18339;DHT22;9295;44.484;11.240;2023-08-07T05:40:12;25.50;99.90
18339;DHT22;9295;44.484;11.240;2023-08-07T05:42:41;26.00;99.90
18339;DHT22;9295;44.484;11.240;2023-08-07T05:45:10;26.30;99.90
18339;DHT22;9295;44.484;11.240;2023-08-07T05:47:38;26.60;99.90
18339;DHT22;9295;44.484;11.240;2023-08-07T05:50:08;26.60;99.90
18339;DHT22;9295;44.484;11.240;2023-08-07T05:52:38;26.50;99.90
18339;DHT22;9295;44.484;11.240;2023-08-07T05:55:19;26.70;99.90
18339;DHT22;9295;44.484;11.240;2023-08-07T05:57:47;26.90;99.90
18339;DHT22;9295;44.484;11.240;2023-08-07T06:00:17;27.00;99.90
18339;DHT22;9295;44.484;11.240;2023-08-07T06:02:46;27.20;99.90
18339;DHT22;9295;44.484;11.240;2023-08-07T06:05:16;27.00;99.00
18339;DHT22;9295;44.484;11.240;2023-08-07T06:07:49;27.20;99.10
18339;DHT22;9295;44.484;11.240;2023-08-07T06:10:21;27.30;97.30
18339;DHT22;9295;44.484;11.240;2023-08-07T06:12:52;27.40;96.60
18339;DHT22;9295;44.484;11.240;2023-08-07T06:15:23;27.60;96.30
18339;DHT22;9295;44.484;11.240;2023-08-07T06:17:52;27.40;95.00
18339;DHT22;9295;44.484;11.240;2023-08-07T06:20:21;27.30;94.00
18339;DHT22;9295;44.484;11.240;2023-08-07T06:22:51;27.30;93.60
18339;DHT22;9295;44.484;11.240;2023-08-07T06:25:21;27.40;93.00
18339;DHT22;9295;44.484;11.240;2023-08-07T06:27:53;27.50;92.30
18339;DHT22;9295;44.484;11.240;2023-08-07T06:30:23;27.50;92.00
18339;DHT22;9295;44.484;11.240;2023-08-07T06:32:52;27.30;92.10
18339;DHT22;9295;44.484;11.240;2023-08-07T06:35:22;27.40;91.50
18339;DHT22;9295;44.484;11.240;2023-08-07T06:37:52;27.60;90.50
18339;DHT22;9295;44.484;11.240;2023-08-07T06:40:21;27.80;89.30
18339;DHT22;9295;44.484;11.240;2023-08-07T06:42:49;27.60;88.90
18339;DHT22;9295;44.484;11.240;2023-08-07T06:45:18;27.50;88.30
18339;DHT22;9295;44.484;11.240;2023-08-07T06:47:46;27.60;87.60
18339;DHT22;9295;44.484;11.240;2023-08-07T06:50:15;27.60;87.50
18339;DHT22;9295;44.484;11.240;2023-08-07T06:52:44;27.50;86.00
18339;DHT22;9295;44.484;11.240;2023-08-07T06:55:14;27.50;85.30
18339;DHT22;9295;44.484;11.240;2023-08-07T06:57:42;27.50;84.80
18339;DHT22;9295;44.484;11.240;2023-08-07T07:00:12;27.50;85.20
18339;DHT22;9295;44.484;11.240;2023-08-07T07:02:40;27.40;85.30
18339;DHT22;9295;44.484;11.240;2023-08-07T07:05:09;27.70;85.40
18339;DHT22;9295;44.484;11.240;2023-08-07T07:07:38;27.70;83.70
18339;DHT22;9295;44.484;11.240;2023-08-07T07:10:07;27.80;84.40
18339;DHT22;9295;44.484;11.240;2023-08-07T07:12:37;27.80;82.50
18339;DHT22;9295;44.484;11.240;2023-08-07T07:15:06;27.90;83.10
18339;DHT22;9295;44.484;11.240;2023-08-07T07:17:36;27.80;83.80
18339;DHT22;9295;44.484;11.240;2023-08-07T07:20:06;27.90;82.60
18339;DHT22;9295;44.484;11.240;2023-08-07T07:22:36;27.80;81.00
18339;DHT22;9295;44.484;11.240;2023-08-07T07:25:06;27.60;78.90
18339;DHT22;9295;44.484;11.240;2023-08-07T07:27:34;27.50;78.70
18339;DHT22;9295;44.484;11.240;2023-08-07T07:30:06;27.60;76.40
18339;DHT22;9295;44.484;11.240;2023-08-07T07:32:35;27.50;76.20
18339;DHT22;9295;44.484;11.240;2023-08-07T07:35:04;27.40;76.50
18339;DHT22;9295;44.484;11.240;2023-08-07T07:37:33;27.30;74.50
18339;DHT22;9295;44.484;11.240;2023-08-07T07:40:02;27.10;72.30
18339;DHT22;9295;44.484;11.240;2023-08-07T07:42:30;26.80;72.20
18339;DHT22;9295;44.484;11.240;2023-08-07T07:44:59;26.70;72.70
18339;DHT22;9295;44.484;11.240;2023-08-07T07:47:28;27.00;73.20
18339;DHT22;9295;44.484;11.240;2023-08-07T07:50:05;26.90;71.30
18339;DHT22;9295;44.484;11.240;2023-08-07T07:52:35;27.00;71.20
18339;DHT22;9295;44.484;11.240;2023-08-07T07:55:04;27.00;69.60
18339;DHT22;9295;44.484;11.240;2023-08-07T07:57:33;27.00;70.00
18339;DHT22;9295;44.484;11.240;2023-08-07T08:00:02;27.00;69.30
18339;DHT22;9295;44.484;11.240;2023-08-07T08:02:39;27.00;69.40
18339;DHT22;9295;44.484;11.240;2023-08-07T08:05:10;27.10;70.10
18339;DHT22;9295;44.484;11.240;2023-08-07T08:07:39;27.30;70.40
18339;DHT22;9295;44.484;11.240;2023-08-07T08:10:09;27.30;70.00
18339;DHT22;9295;44.484;11.240;2023-08-07T08:12:37;27.30;71.50
18339;DHT22;9295;44.484;11.240;2023-08-07T08:15:07;27.30;71.40
18339;DHT22;9295;44.484;11.240;2023-08-07T08:17:35;27.20;70.50
18339;DHT22;9295;44.484;11.240;2023-08-07T08:20:07;27.20;70.30
18339;DHT22;9295;44.484;11.240;2023-08-07T08:22:35;27.10;69.40
18339;DHT22;9295;44.484;11.240;2023-08-07T08:25:04;27.00;68.90
18339;DHT22;9295;44.484;11.240;2023-08-07T08:27:33;27.20;70.00
18339;DHT22;9295;44.484;11.240;2023-08-07T08:30:02;27.20;69.70
18339;DHT22;9295;44.484;11.240;2023-08-07T08:32:31;27.10;70.80
18339;DHT22;9295;44.484;11.240;2023-08-07T08:35:00;27.20;69.30
18339;DHT22;9295;44.484;11.240;2023-08-07T08:37:30;27.20;68.20
18339;DHT22;9295;44.484;11.240;2023-08-07T08:39:58;27.30;67.30
18339;DHT22;9295;44.484;11.240;2023-08-07T08:42:27;27.50;68.10
18339;DHT22;9295;44.484;11.240;2023-08-07T08:44:56;27.50;65.20
18339;DHT22;9295;44.484;11.240;2023-08-07T08:47:26;27.40;65.80
18339;DHT22;9295;44.484;11.240;2023-08-07T08:50:00;27.40;64.80
18339;DHT22;9295;44.484;11.240;2023-08-07T08:52:32;27.30;64.00
18339;DHT22;9295;44.484;11.240;2023-08-07T08:55:01;27.20;64.80
18339;DHT22;9295;44.484;11.240;2023-08-07T08:57:30;27.20;66.00
18339;DHT22;9295;44.484;11.240;2023-08-07T09:00:01;27.30;64.70
18339;DHT22;9295;44.484;11.240;2023-08-07T09:02:32;27.40;64.80
18339;DHT22;9295;44.484;11.240;2023-08-07T09:05:01;27.50;64.70
18339;DHT22;9295;44.484;11.240;2023-08-07T09:07:31;27.60;64.60
18339;DHT22;9295;44.484;11.240;2023-08-07T09:10:02;27.80;64.90
18339;DHT22;9295;44.484;11.240;2023-08-07T09:12:33;27.80;63.30
18339;DHT22;9295;44.484;11.240;2023-08-07T09:15:03;27.90;64.10
18339;DHT22;9295;44.484;11.240;2023-08-07T09:17:35;27.90;62.60
18339;DHT22;9295;44.484;11.240;2023-08-07T09:20:08;27.80;62.30
18339;DHT22;9295;44.484;11.240;2023-08-07T09:22:41;27.80;62.80
18339;DHT22;9295;44.484;11.240;2023-08-07T09:25:09;27.80;62.00
18339;DHT22;9295;44.484;11.240;2023-08-07T09:27:39;27.80;62.40
18339;DHT22;9295;44.484;11.240;2023-08-07T09:30:08;27.80;62.40
18339;DHT22;9295;44.484;11.240;2023-08-07T09:32:39;27.80;62.80
18339;DHT22;9295;44.484;11.240;2023-08-07T09:35:08;27.80;62.40
18339;DHT22;9295;44.484;11.240;2023-08-07T09:37:37;27.80;61.90
18339;DHT22;9295;44.484;11.240;2023-08-07T09:40:09;27.60;62.30
18339;DHT22;9295;44.484;11.240;2023-08-07T09:42:39;27.70;63.40
18339;DHT22;9295;44.484;11.240;2023-08-07T09:45:19;27.60;62.80
18339;DHT22;9295;44.484;11.240;2023-08-07T09:47:57;27.60;62.90
18339;DHT22;9295;44.484;11.240;2023-08-07T09:50:26;27.50;62.80
18339;DHT22;9295;44.484;11.240;2023-08-07T09:52:56;27.60;62.20
18339;DHT22;9295;44.484;11.240;2023-08-07T09:55:28;27.60;61.70
18339;DHT22;9295;44.484;11.240;2023-08-07T09:57:56;27.60;62.10
18339;DHT22;9295;44.484;11.240;2023-08-07T10:00:25;27.60;62.20
18339;DHT22;9295;44.484;11.240;2023-08-07T10:02:54;27.60;62.40
18339;DHT22;9295;44.484;11.240;2023-08-07T10:05:22;27.60;62.50
18339;DHT22;9295;44.484;11.240;2023-08-07T10:07:51;27.60;61.30
18339;DHT22;9295;44.484;11.240;2023-08-07T10:10:21;27.40;60.50
18339;DHT22;9295;44.484;11.240;2023-08-07T10:12:52;27.40;61.00
18339;DHT22;9295;44.484;11.240;2023-08-07T10:15:21;27.40;62.70
18339;DHT22;9295;44.484;11.240;2023-08-07T10:17:50;27.50;60.50
18339;DHT22;9295;44.484;11.240;2023-08-07T10:20:19;27.50;61.30
18339;DHT22;9295;44.484;11.240;2023-08-07T10:22:49;27.60;61.60
18339;DHT22;9295;44.484;11.240;2023-08-07T10:25:20;27.60;58.70
18339;DHT22;9295;44.484;11.240;2023-08-07T10:27:53;27.60;58.30
18339;DHT22;9295;44.484;11.240;2023-08-07T10:30:24;27.60;58.00
18339;DHT22;9295;44.484;11.240;2023-08-07T10:32:54;27.50;57.70
18339;DHT22;9295;44.484;11.240;2023-08-07T10:35:29;27.30;58.00
18339;DHT22;9295;44.484;11.240;2023-08-07T10:38:06;27.40;57.70
18339;DHT22;9295;44.484;11.240;2023-08-07T10:40:58;27.50;57.70
18339;DHT22;9295;44.484;11.240;2023-08-07T10:43:29;27.50;56.60
18339;DHT22;9295;44.484;11.240;2023-08-07T10:46:03;27.50;56.90
18339;DHT22;9295;44.484;11.240;2023-08-07T10:48:40;27.50;58.30
18339;DHT22;9295;44.484;11.240;2023-08-07T10:51:12;27.40;56.50
18339;DHT22;9295;44.484;11.240;2023-08-07T10:53:42;27.30;57.30
18339;DHT22;9295;44.484;11.240;2023-08-07T10:56:16;27.30;57.40
18339;DHT22;9295;44.484;11.240;2023-08-07T10:58:50;27.30;58.10
18339;DHT22;9295;44.484;11.240;2023-08-07T11:01:21;27.40;57.80
18339;DHT22;9295;44.484;11.240;2023-08-07T11:03:51;27.50;58.20
18339;DHT22;9295;44.484;11.240;2023-08-07T11:06:24;27.50;57.90
18339;DHT22;9295;44.484;11.240;2023-08-07T11:08:53;27.60;57.60
18339;DHT22;9295;44.484;11.240;2023-08-07T11:11:22;27.60;57.50
18339;DHT22;9295;44.484;11.240;2023-08-07T11:13:52;27.60;57.40
18339;DHT22;9295;44.484;11.240;2023-08-07T11:16:21;27.40;56.80
18339;DHT22;9295;44.484;11.240;2023-08-07T11:18:50;27.30;56.50
18339;DHT22;9295;44.484;11.240;2023-08-07T11:21:18;27.30;57.20
18339;DHT22;9295;44.484;11.240;2023-08-07T11:23:48;27.30;55.50
18339;DHT22;9295;44.484;11.240;2023-08-07T11:26:17;27.30;55.50
18339;DHT22;9295;44.484;11.240;2023-08-07T11:28:49;27.20;56.10
18339;DHT22;9295;44.484;11.240;2023-08-07T11:31:19;27.40;57.10
18339;DHT22;9295;44.484;11.240;2023-08-07T11:33:50;27.40;55.90
18339;DHT22;9295;44.484;11.240;2023-08-07T11:36:19;27.50;55.90
18339;DHT22;9295;44.484;11.240;2023-08-07T11:38:51;27.50;55.70
18339;DHT22;9295;44.484;11.240;2023-08-07T11:41:26;27.60;55.80
18339;DHT22;9295;44.484;11.240;2023-08-07T11:44:00;27.50;54.30
18339;DHT22;9295;44.484;11.240;2023-08-07T11:46:36;27.40;55.70
18339;DHT22;9295;44.484;11.240;2023-08-07T11:49:07;27.40;55.30
18339;DHT22;9295;44.484;11.240;2023-08-07T11:51:40;27.40;55.30
18339;DHT22;9295;44.484;11.240;2023-08-07T11:54:14;27.50;55.80
18339;DHT22;9295;44.484;11.240;2023-08-07T11:56:46;27.60;56.00
18339;DHT22;9295;44.484;11.240;2023-08-07T11:59:18;27.70;54.50
18339;DHT22;9295;44.484;11.240;2023-08-07T12:01:53;27.60;53.80
18339;DHT22;9295;44.484;11.240;2023-08-07T12:04:24;27.70;55.00
18339;DHT22;9295;44.484;11.240;2023-08-07T12:06:54;27.80;53.90
18339;DHT22;9295;44.484;11.240;2023-08-07T12:09:26;27.80;54.30
18339;DHT22;9295;44.484;11.240;2023-08-07T12:11:57;27.90;53.50
18339;DHT22;9295;44.484;11.240;2023-08-07T12:14:29;27.80;53.70
18339;DHT22;9295;44.484;11.240;2023-08-07T12:17:04;27.80;52.90
18339;DHT22;9295;44.484;11.240;2023-08-07T12:19:39;27.70;53.40
18339;DHT22;9295;44.484;11.240;2023-08-07T12:22:12;27.80;52.70
18339;DHT22;9295;44.484;11.240;2023-08-07T12:24:43;27.80;52.70
18339;DHT22;9295;44.484;11.240;2023-08-07T12:27:15;27.80;50.60
18339;DHT22;9295;44.484;11.240;2023-08-07T12:29:44;27.90;50.60
18339;DHT22;9295;44.484;11.240;2023-08-07T12:32:14;27.90;50.60
18339;DHT22;9295;44.484;11.240;2023-08-07T12:34:42;27.90;51.10
18339;DHT22;9295;44.484;11.240;2023-08-07T12:37:14;27.80;50.80
18339;DHT22;9295;44.484;11.240;2023-08-07T12:39:42;27.80;48.90
18339;DHT22;9295;44.484;11.240;2023-08-07T12:42:13;27.70;48.20
18339;DHT22;9295;44.484;11.240;2023-08-07T12:44:45;27.80;49.30
18339;DHT22;9295;44.484;11.240;2023-08-07T12:47:15;27.70;49.90
18339;DHT22;9295;44.484;11.240;2023-08-07T12:49:43;27.80;49.60
18339;DHT22;9295;44.484;11.240;2023-08-07T12:52:13;27.70;48.80
18339;DHT22;9295;44.484;11.240;2023-08-07T12:54:41;27.70;49.00
18339;DHT22;9295;44.484;11.240;2023-08-07T12:57:10;27.80;49.10
18339;DHT22;9295;44.484;11.240;2023-08-07T12:59:38;27.80;48.90
18339;DHT22;9295;44.484;11.240;2023-08-07T13:02:07;27.80;49.10
18339;DHT22;9295;44.484;11.240;2023-08-07T13:04:37;27.80;49.30
18339;DHT22;9295;44.484;11.240;2023-08-07T13:07:05;27.90;48.70
18339;DHT22;9295;44.484;11.240;2023-08-07T13:09:35;28.00;49.00
18339;DHT22;9295;44.484;11.240;2023-08-07T13:12:04;28.00;47.90
18339;DHT22;9295;44.484;11.240;2023-08-07T13:14:32;27.90;47.40
18339;DHT22;9295;44.484;11.240;2023-08-07T13:17:01;27.90;48.80
18339;DHT22;9295;44.484;11.240;2023-08-07T13:19:30;28.00;49.00
18339;DHT22;9295;44.484;11.240;2023-08-07T13:21:59;28.00;49.00
18339;DHT22;9295;44.484;11.240;2023-08-07T13:24:28;28.00;49.30
18339;DHT22;9295;44.484;11.240;2023-08-07T13:26:57;28.10;50.10
18339;DHT22;9295;44.484;11.240;2023-08-07T13:29:25;28.10;50.10
18339;DHT22;9295;44.484;11.240;2023-08-07T13:31:57;28.00;49.60
18339;DHT22;9295;44.484;11.240;2023-08-07T13:34:25;28.00;49.60
18339;DHT22;9295;44.484;11.240;2023-08-07T13:36:54;28.00;49.30
18339;DHT22;9295;44.484;11.240;2023-08-07T13:39:24;28.00;49.30
18339;DHT22;9295;44.484;11.240;2023-08-07T13:41:53;28.10;49.10
18339;DHT22;9295;44.484;11.240;2023-08-07T13:44:22;28.10;49.00
18339;DHT22;9295;44.484;11.240;2023-08-07T13:46:51;28.20;48.40
18339;DHT22;9295;44.484;11.240;2023-08-07T13:49:20;28.20;49.20
18339;DHT22;9295;44.484;11.240;2023-08-07T13:51:50;28.30;49.20
18339;DHT22;9295;44.484;11.240;2023-08-07T13:54:20;28.20;49.20
18339;DHT22;9295;44.484;11.240;2023-08-07T13:56:51;28.20;49.40
18339;DHT22;9295;44.484;11.240;2023-08-07T13:59:21;28.20;49.00
18339;DHT22;9295;44.484;11.240;2023-08-07T14:01:49;28.20;49.40
18339;DHT22;9295;44.484;11.240;2023-08-07T14:04:19;28.20;49.80
18339;DHT22;9295;44.484;11.240;2023-08-07T14:06:48;28.30;50.10
18339;DHT22;9295;44.484;11.240;2023-08-07T14:09:16;28.30;50.10
18339;DHT22;9295;44.484;11.240;2023-08-07T14:11:48;28.30;50.30
18339;DHT22;9295;44.484;11.240;2023-08-07T14:14:19;28.40;50.40
18339;DHT22;9295;44.484;11.240;2023-08-07T14:16:47;28.50;50.10
18339;DHT22;9295;44.484;11.240;2023-08-07T14:19:16;28.40;49.80
18339;DHT22;9295;44.484;11.240;2023-08-07T14:21:45;28.30;49.70
18339;DHT22;9295;44.484;11.240;2023-08-07T14:24:13;28.40;49.40
18339;DHT22;9295;44.484;11.240;2023-08-07T14:26:43;28.50;49.80
18339;DHT22;9295;44.484;11.240;2023-08-07T14:29:13;28.50;49.30
18339;DHT22;9295;44.484;11.240;2023-08-07T14:31:43;28.50;48.60
18339;DHT22;9295;44.484;11.240;2023-08-07T14:34:11;28.50;48.70
18339;DHT22;9295;44.484;11.240;2023-08-07T14:36:40;28.50;48.40
18339;DHT22;9295;44.484;11.240;2023-08-07T14:39:09;28.60;48.20
18339;DHT22;9295;44.484;11.240;2023-08-07T14:41:37;28.60;48.10
18339;DHT22;9295;44.484;11.240;2023-08-07T14:44:06;28.60;48.20
18339;DHT22;9295;44.484;11.240;2023-08-07T14:46:34;28.60;48.10
18339;DHT22;9295;44.484;11.240;2023-08-07T14:49:04;28.60;48.00
18339;DHT22;9295;44.484;11.240;2023-08-07T14:51:32;28.60;47.60
18339;DHT22;9295;44.484;11.240;2023-08-07T14:54:01;28.60;47.90
18339;DHT22;9295;44.484;11.240;2023-08-07T14:56:30;28.70;48.10
18339;DHT22;9295;44.484;11.240;2023-08-07T14:58:58;28.70;47.60
18339;DHT22;9295;44.484;11.240;2023-08-07T15:01:27;28.60;47.60
18339;DHT22;9295;44.484;11.240;2023-08-07T15:03:56;28.60;47.20
18339;DHT22;9295;44.484;11.240;2023-08-07T15:06:26;28.50;47.20
18339;DHT22;9295;44.484;11.240;2023-08-07T15:08:57;28.60;47.40
18339;DHT22;9295;44.484;11.240;2023-08-07T15:11:26;28.50;47.70
18339;DHT22;9295;44.484;11.240;2023-08-07T15:13:54;28.40;48.80
18339;DHT22;9295;44.484;11.240;2023-08-07T15:16:23;28.40;48.90
18339;DHT22;9295;44.484;11.240;2023-08-07T15:18:52;28.40;48.30
18339;DHT22;9295;44.484;11.240;2023-08-07T15:21:20;28.30;47.20
18339;DHT22;9295;44.484;11.240;2023-08-07T15:23:50;28.20;46.70
18339;DHT22;9295;44.484;11.240;2023-08-07T15:26:19;28.20;46.50
18339;DHT22;9295;44.484;11.240;2023-08-07T15:28:48;28.20;46.90
18339;DHT22;9295;44.484;11.240;2023-08-07T15:31:16;28.10;46.90
18339;DHT22;9295;44.484;11.240;2023-08-07T15:33:46;28.20;47.10
18339;DHT22;9295;44.484;11.240;2023-08-07T15:36:20;28.20;47.50
18339;DHT22;9295;44.484;11.240;2023-08-07T15:38:53;28.20;46.40
18339;DHT22;9295;44.484;11.240;2023-08-07T15:41:22;28.20;46.50
18339;DHT22;9295;44.484;11.240;2023-08-07T15:43:53;28.10;47.10
18339;DHT22;9295;44.484;11.240;2023-08-07T15:46:22;28.10;46.40